Archival Weather

Chicago O'Hare International

Chicago, Illinois (KORD)

Report from: Wednesday, July 19, 2023 8:51 AM CDT
Current time: Thursday, July 18, 2024 8:43 PM CDT

Current weather – Weather history – Daily summaries
Weather forecast

Temperature23.9°C (75.0°F)
Dew point12.2°C (54.0°F)
Winds 4 kts (2.1 m/s, 4.6 mph) East (90°)
Visibility10 mi. (16.1 km)
Clouds Few clouds 10,000 ft. (3,048 m)
Altimeter30.06 in.Hg (1018 mB)
Relative humidity48 %
Density altitude1,094 ft. (333 m)
Sea-level pressure101.7 kPa (1017 mB, 30.04 in.Hg)
Remarks Automated weather observing station with precipitation discriminator
Flight conditions Visual Meteorological Conditions
Raw dataKORD 191351Z 09004KT 10SM FEW100 24/12 A3006 RMK AO2 SLP174 T02390122
An error has occurred. This application may no longer respond until reloaded. Reload 🗙